Dades meteomassalio
Diari Summary for Agost 31, 2017 Units:  English    Metric   Both
« Previous Day
Next Day »
Diari Semanal Mensual Anual Personalitzat
  Maxima: Minima: Mijana:
Temperatura: TemperatureC °F 15.6 °F 19.7 °F
Rosada: DewpointC °F 8.8 °F 14.3 °F
Humitat: Humidity % 49 % 73 %
Velocitat del vent: WindSpeedKMH mph 0.0 mph 9.4 mph
Racha vent: WindSpeedGustKMH mph - -
Vent:- - SW
Pressio: PressurehPa in 1016.1 in -
Pluja: 0.3 in    
Historical Graphs
 
 
Tabular Data for Agost 31, 2017
Time Temperature Dew Point Pressure Wind Wind Speed Wind Gust Humidity Rainfall Rate (Hourly) solar Conditions
TemperatureC °F DewpointC °F PressurehPa in Calm     Humidity % HourlyPrecipMM in SolarRadiationWatts/m^2 W/m2 Conditions
00:00 17.2 °F 15.7 °F 1016.1 in Calm     91 % 0.0 in 0.0 W/m2 CLR
00:05 17.2 °F 15.7 °F 1016.1 in Calm     91 % 0.0 in 0.0 W/m2 CLR
00:10 17.8 °F 16.3 °F 1016.1 in Calm     91 % 0.0 in 0.0 W/m2 CLR
00:15 17.8 °F 16.3 °F 1016.1 in Calm     91 % 0.0 in 0.0 W/m2 CLR
00:20 17.8 °F 16.3 °F 1016.1 in Calm     91 % 0.0 in 0.0 W/m2 CLR
00:25 17.8 °F 16.3 °F 1016.1 in Calm     91 % 0.0 in 0.0 W/m2 CLR
00:30 17.8 °F 16.3 °F 1016.1 in Calm     91 % 0.0 in 0.0 W/m2 CLR
00:35 17.8 °F 16.3 °F 1016.1 in Calm     91 % 0.0 in 0.0 W/m2 CLR
00:40 17.8 °F 16.3 °F 1016.1 in Calm     91 % 0.0 in 0.0 W/m2 CLR
00:45 17.8 °F 16.3 °F 1016.1 in Calm     91 % 0.0 in 0.0 W/m2 CLR
00:50 17.8 °F 16.4 °F 1016.1 in Calm     92 % 0.0 in 0.0 W/m2 CLR
00:55 17.8 °F 16.4 °F 1016.1 in Calm     92 % 0.0 in 0.0 W/m2 CLR
01:00 17.8 °F 16.3 °F 1016.5 in Calm     91 % 0.0 in 0.0 W/m2 CLR
01:05 17.8 °F 16.4 °F 1016.5 in Calm     92 % 0.0 in 0.0 W/m2 CLR
01:10 17.8 °F 16.4 °F 1016.8 in Calm     92 % 0.0 in 0.0 W/m2 CLR
01:15 17.8 °F 16.4 °F 1016.8 in Calm     92 % 0.0 in 0.0 W/m2 CLR
01:20 17.8 °F 16.4 °F 1016.5 in Calm     92 % 0.0 in 0.0 W/m2 CLR
01:25 17.8 °F 16.4 °F 1016.5 in Calm     92 % 0.0 in 0.0 W/m2 CLR
01:30 17.8 °F 16.4 °F 1016.8 in Calm     92 % 0.0 in 0.0 W/m2 CLR
01:35 18.3 °F 17.0 °F 1016.5 in Calm     92 % 0.0 in 0.0 W/m2 CLR
01:40 17.8 °F 16.4 °F 1016.8 in Calm     92 % 0.0 in 0.0 W/m2 CLR
01:45 17.8 °F 16.4 °F 1016.8 in Calm     92 % 0.0 in 0.0 W/m2 CLR
01:50 17.8 °F 16.4 °F 1016.8 in Calm     92 % 0.0 in 0.0 W/m2 CLR
01:55 17.8 °F 16.4 °F 1016.8 in Calm     92 % 0.0 in 0.0 W/m2 CLR
02:00 17.8 °F 16.4 °F 1016.8 in Calm     92 % 0.0 in 0.0 W/m2 CLR
02:05 17.8 °F 16.4 °F 1016.8 in Calm     92 % 0.0 in 0.0 W/m2 CLR
02:10 17.8 °F 16.4 °F 1017.2 in Calm     92 % 0.0 in 0.0 W/m2 CLR
02:15 17.8 °F 16.4 °F 1016.8 in Calm     92 % 0.0 in 0.0 W/m2 CLR
02:20 17.8 °F 16.4 °F 1016.8 in Calm     92 % 0.0 in 0.0 W/m2 CLR
02:25 18.3 °F 17.0 °F 1016.8 in Calm     92 % 0.0 in 0.0 W/m2 CLR
02:30 18.3 °F 17.0 °F 1017.2 in Calm     92 % 0.0 in 0.0 W/m2 CLR
02:35 17.8 °F 16.4 °F 1017.2 in Calm     92 % 0.0 in 0.0 W/m2 CLR
02:40 17.8 °F 16.4 °F 1017.2 in Calm     92 % 0.0 in 0.0 W/m2 CLR
02:45 17.8 °F 16.6 °F 1017.5 in Calm     93 % 0.0 in 0.0 W/m2 CLR
02:50 17.8 °F 16.6 °F 1017.5 in Calm     93 % 0.0 in 0.0 W/m2 CLR
02:55 17.8 °F 16.6 °F 1017.5 in Calm     93 % 0.0 in 0.0 W/m2 CLR
03:00 18.3 °F 17.2 °F 1017.5 in SW 5.6 mph 5.6 mph 93 % 0.0 in 0.0 W/m2 CLR
03:05 18.3 °F 17.0 °F 1017.5 in SW 5.6 mph 5.6 mph 92 % 0.0 in 0.0 W/m2 CLR
03:10 18.3 °F 17.0 °F 1017.8 in SW 9.3 mph 9.3 mph 92 % 0.0 in 0.0 W/m2 CLR
03:15 18.3 °F 16.8 °F 1017.8 in SW 22.2 mph 22.2 mph 91 % 0.0 in 0.0 W/m2 CLR
03:20 18.3 °F 16.7 °F 1017.8 in SSW 20.4 mph 20.4 mph 90 % 0.0 in 0.0 W/m2 CLR
03:25 18.3 °F 16.5 °F 1017.8 in WSW 20.4 mph 20.4 mph 89 % 0.0 in 0.0 W/m2 CLR
03:30 18.3 °F 16.5 °F 1017.8 in SSW 16.1 mph 16.1 mph 89 % 0.0 in 0.0 W/m2 CLR
03:35 18.3 °F 16.5 °F 1017.8 in SW 11.1 mph 11.1 mph 89 % 0.0 in 0.0 W/m2 CLR
03:41 18.3 °F 16.5 °F 1017.8 in SW 16.7 mph 16.7 mph 89 % 0.0 in 0.0 W/m2 CLR
03:46 18.3 °F 16.3 °F 1017.8 in SW 14.8 mph 14.8 mph 88 % 0.0 in 0.0 W/m2 CLR
03:51 18.3 °F 16.3 °F 1017.8 in SSW 16.7 mph 16.7 mph 88 % 0.0 in 0.0 W/m2 CLR
03:56 17.8 °F 15.8 °F 1017.8 in SSW 18.5 mph 18.5 mph 88 % 0.0 in 0.0 W/m2 CLR
04:01 17.8 °F 15.8 °F 1017.8 in SW 18.5 mph 18.5 mph 88 % 0.0 in 0.0 W/m2 CLR
04:06 17.8 °F 15.8 °F 1017.5 in SW 14.8 mph 14.8 mph 88 % 0.0 in 0.0 W/m2 CLR
04:11 17.8 °F 15.8 °F 1017.8 in SW 16.7 mph 16.7 mph 88 % 0.0 in 0.0 W/m2 CLR
04:16 17.8 °F 15.8 °F 1017.8 in SW 16.7 mph 16.7 mph 88 % 0.0 in 0.0 W/m2 CLR
04:21 17.2 °F 15.2 °F 1017.8 in SSW 13.0 mph 13.0 mph 88 % 0.0 in 0.0 W/m2 CLR
04:26 17.2 °F 15.2 °F 1018.2 in SSW 16.7 mph 16.7 mph 88 % 0.0 in 0.0 W/m2 CLR
04:31 17.2 °F 15.2 °F 1018.2 in SSW 16.7 mph 16.7 mph 88 % 0.0 in 0.0 W/m2 CLR
04:36 17.2 °F 15.2 °F 1018.2 in SSW 13.0 mph 13.0 mph 88 % 0.0 in 0.0 W/m2 CLR
04:38 17.2 °F 15.2 °F 1018.2 in South 14.8 mph 14.8 mph 88 % 0.0 in 0.0 W/m2 CLR
04:43 17.2 °F 15.2 °F 1018.2 in SSW 9.7 mph 9.7 mph 88 % 0.0 in 0.0 W/m2 CLR
04:48 17.2 °F 15.2 °F 1018.2 in SW 14.8 mph 14.8 mph 88 % 0.0 in 0.0 W/m2 CLR
04:53 17.2 °F 15.1 °F 1018.2 in SSW 16.7 mph 16.7 mph 87 % 0.0 in 0.0 W/m2 CLR
04:58 17.2 °F 15.1 °F 1018.2 in SSW 16.7 mph 16.7 mph 87 % 0.0 in 0.0 W/m2 CLR
05:03 17.8 °F 15.6 °F 1018.5 in SW 13.0 mph 13.0 mph 87 % 0.0 in 0.0 W/m2 CLR
05:08 17.2 °F 15.1 °F 1018.5 in SSW 16.7 mph 16.7 mph 87 % 0.0 in 0.0 W/m2 CLR
05:13 17.8 °F 15.6 °F 1018.5 in SW 9.3 mph 9.3 mph 87 % 0.0 in 0.0 W/m2 CLR
05:18 17.2 °F 15.1 °F 1018.5 in SSW 14.8 mph 14.8 mph 87 % 0.0 in 0.0 W/m2 CLR
05:22 17.2 °F 15.1 °F 1018.5 in SSW 11.3 mph 11.3 mph 87 % 0.0 in 0.0 W/m2 CLR
05:23 17.2 °F 15.1 °F 1018.5 in SW 11.1 mph 11.1 mph 87 % 0.0 in 0.0 W/m2 CLR
05:28 17.2 °F 15.1 °F 1018.5 in SW 16.1 mph 16.1 mph 87 % 0.0 in 0.0 W/m2 CLR
05:33 17.2 °F 14.8 °F 1018.5 in SSW 20.4 mph 20.4 mph 86 % 0.0 in 0.0 W/m2 CLR
05:38 17.2 °F 14.8 °F 1018.5 in SSW 11.1 mph 11.1 mph 86 % 0.0 in 0.0 W/m2 CLR
05:43 17.2 °F 14.8 °F 1018.8 in SW 11.1 mph 11.1 mph 86 % 0.0 in 0.0 W/m2 CLR
05:48 17.2 °F 14.8 °F 1018.5 in SW 9.3 mph 9.3 mph 86 % 0.0 in 0.0 W/m2 CLR
05:53 17.2 °F 14.8 °F 1018.5 in SSW 14.8 mph 14.8 mph 86 % 0.0 in 0.0 W/m2 CLR
05:58 17.2 °F 14.8 °F 1018.5 in SSW 16.7 mph 16.7 mph 86 % 0.0 in 0.0 W/m2 CLR
06:03 17.2 °F 14.8 °F 1018.8 in SW 11.3 mph 11.3 mph 86 % 0.0 in 0.0 W/m2 CLR
06:08 17.2 °F 14.8 °F 1018.8 in SSW 7.4 mph 7.4 mph 86 % 0.0 in 0.0 W/m2 CLR
06:13 17.2 °F 14.8 °F 1018.8 in SSW 13.0 mph 13.0 mph 86 % 0.0 in 0.0 W/m2 CLR
06:18 17.2 °F 14.8 °F 1018.8 in SSW 11.1 mph 11.1 mph 86 % 0.0 in 0.0 W/m2 CLR
06:23 17.2 °F 14.8 °F 1018.8 in SW 14.8 mph 14.8 mph 86 % 0.0 in 0.0 W/m2 CLR
06:28 17.2 °F 14.8 °F 1018.8 in SW 14.8 mph 14.8 mph 86 % 0.0 in 0.0 W/m2 CLR
06:33 17.2 °F 14.7 °F 1019.2 in SSW 18.5 mph 18.5 mph 85 % 0.0 in 0.0 W/m2 CLR
06:38 17.2 °F 14.7 °F 1019.2 in SSW 12.9 mph 12.9 mph 85 % 0.0 in 0.0 W/m2 CLR
06:43 17.2 °F 14.7 °F 1019.2 in SSW 16.7 mph 16.7 mph 85 % 0.0 in 0.0 W/m2 CLR
06:48 17.2 °F 14.7 °F 1019.2 in SW 19.3 mph 19.3 mph 85 % 0.0 in 0.0 W/m2 CLR
06:53 17.2 °F 14.7 °F 1019.2 in SSW 11.3 mph 11.3 mph 85 % 0.0 in 0.0 W/m2 CLR
06:58 17.2 °F 14.7 °F 1019.2 in SW 13.0 mph 13.0 mph 85 % 0.0 in 0.0 W/m2 CLR
07:03 17.2 °F 14.7 °F 1019.5 in SSW 16.7 mph 16.7 mph 85 % 0.0 in 0.0 W/m2 CLR
07:09 17.2 °F 14.7 °F 1019.5 in SSW 22.2 mph 22.2 mph 85 % 0.0 in 0.0 W/m2 CLR
07:14 17.2 °F 14.5 °F 1019.5 in SSW 22.2 mph 22.2 mph 84 % 0.0 in 0.0 W/m2 CLR
07:19 17.2 °F 14.5 °F 1019.5 in SSW 25.7 mph 25.7 mph 84 % 0.0 in 0.0 W/m2 OVC
07:24 17.2 °F 14.5 °F 1019.5 in SSW 20.4 mph 20.4 mph 84 % 0.0 in 0.0 W/m2 OVC
07:29 17.2 °F 14.5 °F 1019.5 in SSW 18.5 mph 18.5 mph 84 % 0.0 in 0.0 W/m2 OVC
07:34 17.2 °F 14.5 °F 1019.9 in SSW 18.5 mph 18.5 mph 84 % 0.0 in 0.0 W/m2 OVC
07:39 16.7 °F 13.9 °F 1019.9 in SW 11.1 mph 11.1 mph 84 % 0.0 in 0.0 W/m2 OVC
07:44 16.7 °F 13.9 °F 1019.9 in SW 11.1 mph 11.1 mph 84 % 0.0 in 5.0 W/m2 OVC
07:49 16.7 °F 13.9 °F 1019.9 in SSW 16.7 mph 16.7 mph 84 % 0.0 in 7.0 W/m2 BKN
07:54 16.7 °F 13.9 °F 1019.9 in Calm     84 % 0.0 in 11.0 W/m2 BKN
07:59 16.7 °F 13.9 °F 1019.9 in Calm     84 % 0.0 in 12.0 W/m2 BKN
08:04 16.7 °F 13.9 °F 1019.9 in Calm     84 % 0.0 in 12.0 W/m2 BKN
08:09 16.7 °F 13.9 °F 1019.9 in Calm     84 % 0.0 in 16.0 W/m2 BKN
08:14 16.7 °F 14.1 °F 1019.9 in Calm     85 % 0.0 in 18.0 W/m2 BKN
08:19 16.7 °F 14.1 °F 1020.2 in Calm     85 % 0.0 in 21.0 W/m2 BKN
08:24 16.7 °F 14.3 °F 1020.2 in Calm     86 % 0.0 in 26.0 W/m2 BKN
08:29 16.7 °F 14.1 °F 1020.2 in South 11.3 mph 11.3 mph 85 % 0.0 in 33.0 W/m2 BKN
08:34 16.7 °F 14.1 °F 1020.2 in SSW 7.4 mph 7.4 mph 85 % 0.0 in 39.0 W/m2 BKN
08:39 16.7 °F 14.1 °F 1020.2 in SW 11.3 mph 11.3 mph 85 % 0.0 in 49.0 W/m2 BKN
08:44 16.7 °F 13.9 °F 1020.2 in WSW 18.5 mph 18.5 mph 84 % 0.0 in 63.0 W/m2 SCT
08:49 16.7 °F 13.8 °F 1020.5 in SSW 13.0 mph 13.0 mph 83 % 0.0 in 72.0 W/m2 SCT
08:54 16.7 °F 13.9 °F 1020.5 in SSW 11.3 mph 11.3 mph 84 % 0.0 in 79.0 W/m2 FEW
08:59 16.7 °F 13.8 °F 1020.5 in SSW 18.5 mph 18.5 mph 83 % 0.0 in 83.0 W/m2 FEW
09:04 16.7 °F 13.8 °F 1020.5 in SW 25.7 mph 25.7 mph 83 % 0.0 in 93.0 W/m2 FEW
09:09 16.7 °F 13.8 °F 1020.9 in WSW 16.1 mph 16.1 mph 83 % 0.0 in 97.0 W/m2 CLR
09:14 16.7 °F 13.8 °F 1020.9 in SW 11.1 mph 11.1 mph 83 % 0.0 in 97.0 W/m2 CLR
09:19 16.7 °F 13.8 °F 1020.9 in SSW 16.1 mph 16.1 mph 83 % 0.0 in 97.0 W/m2 CLR
09:24 16.7 °F 13.8 °F 1020.9 in SSW 11.3 mph 11.3 mph 83 % 0.0 in 102.0 W/m2 CLR
09:29 16.7 °F 13.8 °F 1020.9 in WSW 18.5 mph 18.5 mph 83 % 0.0 in 111.0 W/m2 CLR
09:34 16.7 °F 13.8 °F 1020.9 in SW 9.3 mph 9.3 mph 83 % 0.0 in 118.0 W/m2 CLR
09:39 16.7 °F 13.8 °F 1020.9 in SSW 14.8 mph 14.8 mph 83 % 0.0 in 139.0 W/m2 CLR
09:44 17.2 °F 14.3 °F 1020.9 in SW 11.1 mph 11.1 mph 83 % 0.0 in 174.0 W/m2 CLR
09:49 17.2 °F 14.3 °F 1020.9 in SSW 5.6 mph 5.6 mph 83 % 0.0 in 183.0 W/m2 CLR
09:54 17.2 °F 14.1 °F 1021.2 in SSW 11.3 mph 11.3 mph 82 % 0.0 in 202.0 W/m2 CLR
09:59 17.2 °F 13.9 °F 1021.2 in SSW 18.5 mph 18.5 mph 81 % 0.0 in 251.0 W/m2 CLR
10:04 17.8 °F 14.8 °F 1021.2 in South 18.5 mph 18.5 mph 83 % 0.0 in 584.0 W/m2 CLR
10:10 18.3 °F 14.8 °F 1021.2 in SSW 27.8 mph 27.8 mph 80 % 0.0 in 301.0 W/m2 CLR
10:15 18.3 °F 14.8 °F 1021.2 in SSW 18.5 mph 18.5 mph 80 % 0.0 in 369.0 W/m2 CLR
10:20 18.3 °F 14.8 °F 1021.6 in WSW 20.4 mph 20.4 mph 80 % 0.0 in 332.0 W/m2 CLR
10:25 18.9 °F 15.2 °F 1021.6 in SW 25.9 mph 25.9 mph 79 % 0.0 in 371.0 W/m2 CLR
10:30 18.9 °F 15.4 °F 1021.6 in SW 22.5 mph 22.5 mph 80 % 0.0 in 334.0 W/m2 CLR
10:35 18.3 °F 14.6 °F 1021.6 in SSW 27.8 mph 27.8 mph 79 % 0.3 in 360.0 W/m2 RA
10:40 18.3 °F 14.4 °F 1021.6 in SW 20.4 mph 20.4 mph 78 % 0.3 in 352.0 W/m2 CLR
10:45 18.3 °F 14.4 °F 1021.6 in SSW 24.1 mph 24.1 mph 78 % 0.3 in 323.0 W/m2 CLR
10:50 18.9 °F 14.8 °F 1021.6 in SSW 24.1 mph 24.1 mph 77 % 0.3 in 531.0 W/m2 CLR
10:55 18.9 °F 14.8 °F 1021.6 in SSW 22.2 mph 22.2 mph 77 % 0.3 in 547.0 W/m2 CLR
11:00 19.4 °F 15.3 °F 1021.6 in SSE 24.1 mph 24.1 mph 77 % 0.3 in 647.0 W/m2 CLR
11:05 19.4 °F 15.7 °F 1021.6 in SW 11.3 mph 11.3 mph 79 % 0.3 in 735.0 W/m2 CLR
11:10 19.4 °F 15.3 °F 1021.6 in SW 24.1 mph 24.1 mph 77 % 0.3 in 752.0 W/m2 CLR
11:15 19.4 °F 15.3 °F 1021.6 in WSW 22.2 mph 22.2 mph 77 % 0.3 in 810.0 W/m2 CLR
11:16 20.0 °F 15.8 °F 1021.6 in SW 20.4 mph 20.4 mph 77 % 0.3 in 810.0 W/m2 CLR
11:21 20.0 °F 15.7 °F 1021.6 in SW 25.7 mph 25.7 mph 76 % 0.3 in 483.0 W/m2 CLR
11:26 19.4 °F 15.1 °F 1021.6 in SW 20.4 mph 20.4 mph 76 % 0.3 in 679.0 W/m2 CLR
11:31 20.0 °F 15.7 °F 1021.6 in SW 20.4 mph 20.4 mph 76 % 0.0 in 722.0 W/m2 CLR
11:36 20.0 °F 15.4 °F 1021.6 in SW 24.1 mph 24.1 mph 75 % 0.0 in 694.0 W/m2 CLR
11:41 20.6 °F 15.9 °F 1021.6 in SSW 24.1 mph 24.1 mph 75 % 0.0 in 694.0 W/m2 CLR
11:46 20.0 °F 15.2 °F 1021.6 in SSW 19.3 mph 19.3 mph 74 % 0.0 in 708.0 W/m2 CLR
11:51 20.6 °F 15.8 °F 1021.6 in SW 18.5 mph 18.5 mph 74 % 0.0 in 744.0 W/m2 CLR
11:56 21.1 °F 15.9 °F 1021.6 in South 22.2 mph 22.2 mph 72 % 0.0 in 703.0 W/m2 CLR
12:01 20.6 °F 15.6 °F 1021.6 in WSW 14.5 mph 14.5 mph 73 % 0.0 in 701.0 W/m2 CLR
12:06 21.1 °F 15.9 °F 1021.6 in SE 13.0 mph 13.0 mph 72 % 0.0 in 719.0 W/m2 CLR
12:11 21.1 °F 15.7 °F 1021.6 in SSW 5.6 mph   71 % 0.0 in 749.0 W/m2 CLR
12:16 21.7 °F 15.9 °F 1021.2 in SSW 19.3 mph 19.3 mph 70 % 0.0 in 737.0 W/m2 CLR
12:21 21.7 °F 16.2 °F 1021.2 in SW 9.3 mph 9.3 mph 71 % 0.0 in 744.0 W/m2 CLR
12:26 21.7 °F 16.2 °F 1021.2 in WSW 20.4 mph 20.4 mph 71 % 0.0 in 751.0 W/m2 CLR
12:31 21.7 °F 16.2 °F 1021.2 in SW 18.5 mph 18.5 mph 71 % 0.0 in 758.0 W/m2 CLR
12:36 21.7 °F 15.5 °F 1021.2 in South 14.8 mph 14.8 mph 68 % 0.0 in 763.0 W/m2 CLR
12:41 22.2 °F 16.5 °F 1021.2 in SSW 25.9 mph 25.9 mph 70 % 0.0 in 768.0 W/m2 CLR
12:46 22.2 °F 16.3 °F 1021.2 in SSW 8.0 mph 8.0 mph 69 % 0.0 in 770.0 W/m2 CLR
12:51 22.2 °F 16.1 °F 1021.2 in SSW 18.5 mph 18.5 mph 68 % 0.0 in 782.0 W/m2 CLR
12:56 22.2 °F 16.1 °F 1021.2 in SW 20.4 mph 20.4 mph 68 % 0.0 in 789.0 W/m2 CLR
13:01 22.8 °F 16.8 °F 1021.2 in SW 20.4 mph 20.4 mph 69 % 0.0 in 802.0 W/m2 CLR
13:06 22.8 °F 16.6 °F 1020.9 in Calm     68 % 0.0 in 796.0 W/m2 CLR
13:11 22.8 °F 16.1 °F 1020.9 in SW 18.5 mph 18.5 mph 66 % 0.0 in 867.0 W/m2 CLR
13:16 22.2 °F 15.3 °F 1020.9 in SW 18.5 mph 18.5 mph 65 % 0.0 in 816.0 W/m2 CLR
13:21 22.2 °F 15.8 °F 1020.9 in SW 19.3 mph 19.3 mph 67 % 0.0 in 817.0 W/m2 CLR
13:26 22.8 °F 16.1 °F 1020.9 in WSW 22.2 mph 22.2 mph 66 % 0.0 in 853.0 W/m2 CLR
13:31 22.2 °F 15.3 °F 1020.9 in South 20.4 mph 20.4 mph 65 % 0.0 in 847.0 W/m2 CLR
13:37 22.8 °F 16.1 °F 1020.5 in SW 20.4 mph 20.4 mph 66 % 0.0 in 879.0 W/m2 CLR
13:42 22.2 °F 15.6 °F 1020.9 in South 24.1 mph 24.1 mph 66 % 0.0 in 951.0 W/m2 CLR
13:47 23.3 °F 16.4 °F 1020.9 in WNW 20.4 mph 20.4 mph 65 % 0.0 in 882.0 W/m2 CLR
13:52 23.3 °F 15.7 °F 1020.9 in West 11.1 mph 11.1 mph 62 % 0.0 in 990.0 W/m2 CLR
13:57 22.8 °F 15.4 °F 1020.9 in SSW 11.1 mph 11.1 mph 63 % 0.0 in 290.0 W/m2 CLR
14:02 22.2 °F 14.8 °F 1020.9 in WSW 11.1 mph 11.1 mph 63 % 0.0 in 900.0 W/m2 CLR
14:07 22.8 °F 15.6 °F 1020.9 in SW 13.0 mph 13.0 mph 64 % 0.0 in 863.0 W/m2 CLR
14:12 23.3 °F 15.9 °F 1020.9 in West 5.6 mph 5.6 mph 63 % 0.0 in 893.0 W/m2 CLR
14:17 23.3 °F 15.4 °F 1020.9 in South 7.4 mph 7.4 mph 61 % 0.0 in 872.0 W/m2 CLR
14:22 23.3 °F 15.7 °F 1020.5 in SW 5.6 mph 5.6 mph 62 % 0.0 in 830.0 W/m2 CLR
14:27 23.9 °F 16.4 °F 1020.5 in WSW 13.0 mph 13.0 mph 63 % 0.0 in 840.0 W/m2 CLR
14:32 23.3 °F 15.4 °F 1020.5 in West 24.1 mph 24.1 mph 61 % 0.0 in 840.0 W/m2 CLR
14:37 23.3 °F 14.3 °F 1020.5 in SW 9.3 mph 9.3 mph 57 % 0.0 in 819.0 W/m2 CLR
14:42 23.9 °F 15.4 °F 1020.5 in SW 9.3 mph 9.3 mph 59 % 0.0 in 812.0 W/m2 CLR
14:47 23.3 °F 15.1 °F 1020.5 in Calm     60 % 0.0 in 810.0 W/m2 CLR
14:52 23.9 °F 15.4 °F 1020.5 in SW 7.4 mph 7.4 mph 59 % 0.0 in 803.0 W/m2 CLR
14:57 23.9 °F 14.8 °F 1020.5 in West 11.1 mph 11.1 mph 57 % 0.0 in 800.0 W/m2 CLR
15:02 23.9 °F 14.8 °F 1020.5 in SW 9.3 mph 9.3 mph 57 % 0.0 in 793.0 W/m2 CLR
15:07 23.9 °F 14.8 °F 1020.5 in SSW 1.9 mph   57 % 0.0 in 788.0 W/m2 CLR
15:12 24.4 °F 15.1 °F 1020.5 in Calm     56 % 0.0 in 784.0 W/m2 CLR
15:17 23.9 °F 14.3 °F 1020.2 in West 18.5 mph 18.5 mph 55 % 0.0 in 780.0 W/m2 CLR
15:22 23.9 °F 14.3 °F 1020.2 in SW 11.3 mph 11.3 mph 55 % 0.0 in 773.0 W/m2 CLR
15:27 24.4 °F 14.6 °F 1019.9 in WNW 16.7 mph 16.7 mph 54 % 0.0 in 770.0 W/m2 CLR
15:32 24.4 °F 14.8 °F 1019.9 in West 5.6 mph 5.6 mph 55 % 0.0 in 761.0 W/m2 CLR
15:37 24.4 °F 14.2 °F 1019.9 in Calm     53 % 0.0 in 756.0 W/m2 CLR
15:42 23.9 °F 14.6 °F 1019.9 in SSW 7.4 mph 7.4 mph 56 % 0.0 in 744.0 W/m2 CLR
15:47 24.4 °F 14.6 °F 1019.9 in SSW 13.0 mph 13.0 mph 54 % 0.0 in 737.0 W/m2 CLR
15:52 24.4 °F 13.9 °F 1019.9 in WNW 7.4 mph   52 % 0.0 in 731.0 W/m2 CLR
15:57 24.4 °F 14.6 °F 1019.5 in WSW 18.5 mph 18.5 mph 54 % 0.0 in 728.0 W/m2 CLR
16:02 24.4 °F 14.6 °F 1019.5 in SSW 11.1 mph 11.1 mph 54 % 0.0 in 737.0 W/m2 CLR
16:07 25.0 °F 14.4 °F 1019.5 in Calm     52 % 0.0 in 777.0 W/m2 CLR
16:12 25.0 °F 14.4 °F 1019.5 in Calm     52 % 0.0 in 749.0 W/m2 CLR
16:17 25.0 °F 14.8 °F 1019.2 in West 5.6 mph 5.6 mph 53 % 0.0 in 700.0 W/m2 CLR
16:22 25.0 °F 14.4 °F 1019.5 in West 13.0 mph 13.0 mph 52 % 0.0 in 670.0 W/m2 CLR
16:23 25.0 °F 14.4 °F 1019.2 in West 13.0 mph 13.0 mph 52 % 0.0 in 670.0 W/m2 CLR
16:28 25.0 °F 14.8 °F 1019.2 in SW 14.8 mph 14.8 mph 53 % 0.0 in 563.0 W/m2 CLR
16:33 25.6 °F 15.6 °F 1019.2 in SW 18.5 mph 18.5 mph 54 % 0.0 in 679.0 W/m2 CLR
16:38 25.0 °F 14.8 °F 1019.2 in West 16.7 mph 16.7 mph 53 % 0.0 in 735.0 W/m2 CLR
16:43 25.0 °F 14.8 °F 1019.2 in WSW 14.8 mph 14.8 mph 53 % 0.0 in 269.0 W/m2 CLR
16:48 23.9 °F 13.7 °F 1019.2 in SSW 14.8 mph 14.8 mph 53 % 0.0 in 302.0 W/m2 CLR
16:53 24.4 °F 13.7 °F 1019.2 in WSW 11.1 mph 11.1 mph 51 % 0.0 in 735.0 W/m2 CLR
16:58 24.4 °F 13.7 °F 1019.2 in Calm     51 % 0.0 in 629.0 W/m2 CLR
17:03 25.0 °F 13.8 °F 1019.2 in Calm     50 % 0.0 in 645.0 W/m2 CLR
17:08 25.0 °F 13.8 °F 1019.2 in WSW 8.0 mph 8.0 mph 50 % 0.0 in 533.0 W/m2 CLR
17:13 25.0 °F 13.8 °F 1019.2 in West 9.3 mph 9.3 mph 50 % 0.0 in 601.0 W/m2 CLR
17:18 25.0 °F 13.8 °F 1019.2 in West 14.8 mph 14.8 mph 50 % 0.0 in 552.0 W/m2 CLR
17:23 25.6 °F 14.7 °F 1019.2 in WSW 9.7 mph 9.7 mph 51 % 0.0 in 540.0 W/m2 CLR
17:28 25.6 °F 14.7 °F 1019.2 in West 16.7 mph 16.7 mph 51 % 0.0 in 527.0 W/m2 CLR
17:33 25.0 °F 13.8 °F 1019.2 in WSW 5.6 mph 5.6 mph 50 % 0.0 in 508.0 W/m2 CLR
17:38 25.0 °F 13.6 °F 1019.2 in WNW 14.8 mph 14.8 mph 49 % 0.0 in 490.0 W/m2 CLR
17:43 25.0 °F 14.2 °F 1019.2 in West 11.1 mph 11.1 mph 51 % 0.0 in 478.0 W/m2 CLR
17:48 24.4 °F 13.7 °F 1019.2 in West 13.0 mph 13.0 mph 51 % 0.0 in 468.0 W/m2 CLR
17:53 24.4 °F 13.3 °F 1018.8 in Calm     50 % 0.0 in 455.0 W/m2 CLR
17:58 24.4 °F 13.7 °F 1018.8 in NNW 3.7 mph 3.7 mph 51 % 0.0 in 425.0 W/m2 CLR
18:03 24.4 °F 13.7 °F 1018.8 in West 5.6 mph 5.6 mph 51 % 0.0 in 339.0 W/m2 CLR
18:08 24.4 °F 13.9 °F 1018.8 in SW 13.0 mph 13.0 mph 52 % 0.0 in 397.0 W/m2 CLR
18:13 24.4 °F 13.3 °F 1018.8 in West 14.8 mph 14.8 mph 50 % 0.0 in 281.0 W/m2 CLR
18:18 24.4 °F 13.9 °F 1018.8 in West 16.7 mph 16.7 mph 52 % 0.0 in 209.0 W/m2 CLR
18:23 24.4 °F 13.9 °F 1018.8 in WSW 13.0 mph 13.0 mph 52 % 0.0 in 130.0 W/m2 CLR
18:28 23.9 °F 13.7 °F 1018.8 in Calm     53 % 0.0 in 144.0 W/m2 CLR
18:33 23.9 °F 14.0 °F 1018.8 in Calm     54 % 0.0 in 399.0 W/m2 CLR
18:38 23.9 °F 13.4 °F 1018.8 in West 14.8 mph 14.8 mph 52 % 0.0 in 387.0 W/m2 CLR
18:43 24.4 °F 13.7 °F 1018.8 in SW 3.7 mph   51 % 0.0 in 302.0 W/m2 CLR
18:48 23.9 °F 13.1 °F 1019.2 in Calm     51 % 0.0 in 114.0 W/m2 CLR
18:53 23.9 °F 13.7 °F 1019.2 in SW 9.3 mph 9.3 mph 53 % 0.0 in 213.0 W/m2 CLR
18:58 23.9 °F 13.4 °F 1019.2 in Calm     52 % 0.0 in 149.0 W/m2 CLR
19:03 23.9 °F 13.7 °F 1019.2 in Calm     53 % 0.0 in 128.0 W/m2 CLR
19:08 23.3 °F 12.9 °F 1019.2 in WSW 6.4 mph 6.4 mph 52 % 0.0 in 130.0 W/m2 CLR
19:13 23.3 °F 13.2 °F 1019.2 in SW 9.3 mph 9.3 mph 53 % 0.0 in 213.0 W/m2 CLR
19:18 23.9 °F 13.7 °F 1019.2 in SSW 13.0 mph 13.0 mph 53 % 0.0 in 214.0 W/m2 CLR
19:23 23.9 °F 13.4 °F 1019.2 in SSW 9.3 mph 9.3 mph 52 % 0.0 in 116.0 W/m2 CLR
19:28 23.9 °F 13.4 °F 1019.2 in SW 9.3 mph 9.3 mph 52 % 0.0 in 114.0 W/m2 CLR
19:33 23.9 °F 13.4 °F 1019.5 in WSW 14.8 mph 14.8 mph 52 % 0.0 in 120.0 W/m2 CLR
19:38 23.3 °F 13.2 °F 1019.5 in WSW 11.1 mph 11.1 mph 53 % 0.0 in 109.0 W/m2 CLR
19:43 23.3 °F 13.2 °F 1019.5 in WSW 9.7 mph 9.7 mph 53 % 0.0 in 102.0 W/m2 CLR
19:48 23.3 °F 13.2 °F 1019.5 in Calm     53 % 0.0 in 70.0 W/m2 FEW
19:53 23.3 °F 13.5 °F 1019.9 in WSW 7.4 mph 7.4 mph 54 % 0.0 in 72.0 W/m2 FEW
19:58 22.8 °F 12.7 °F 1019.9 in WSW 3.7 mph   53 % 0.0 in 56.0 W/m2 SCT
20:03 22.8 °F 13.3 °F 1019.9 in Calm     55 % 0.0 in 42.0 W/m2 BKN
20:08 22.8 °F 13.3 °F 1019.9 in SW 3.2 mph 3.2 mph 55 % 0.0 in 32.0 W/m2 BKN
20:13 22.2 °F 13.0 °F 1019.9 in Calm     56 % 0.0 in 26.0 W/m2 BKN
20:18 22.2 °F 13.0 °F 1019.9 in Calm     56 % 0.0 in 19.0 W/m2 BKN
20:23 22.2 °F 13.3 °F 1020.2 in Calm     57 % 0.0 in 12.0 W/m2 BKN
20:28 21.7 °F 12.8 °F 1020.2 in Calm     57 % 0.0 in 9.0 W/m2 BKN
20:33 21.7 °F 13.3 °F 1020.2 in Calm     59 % 0.0 in 0.0 W/m2 OVC
20:38 21.1 °F 12.5 °F 1020.2 in Calm     58 % 0.0 in 0.0 W/m2 OVC
20:43 20.6 °F 12.0 °F 1020.2 in Calm     58 % 0.0 in 0.0 W/m2 CLR
20:48 20.0 °F 11.7 °F 1020.2 in Calm     59 % 0.0 in 0.0 W/m2 CLR
20:53 19.4 °F 11.9 °F 1020.2 in Calm     62 % 0.0 in 0.0 W/m2 CLR
20:58 19.4 °F 12.7 °F 1020.2 in Calm     65 % 0.0 in 0.0 W/m2 CLR
21:03 18.9 °F 12.4 °F 1020.2 in Calm     66 % 0.0 in 0.0 W/m2 CLR
21:08 18.9 °F 12.4 °F 1020.2 in Calm     66 % 0.0 in 0.0 W/m2 CLR
21:13 18.9 °F 12.4 °F 1020.2 in Calm     66 % 0.0 in 0.0 W/m2 CLR
21:18 18.9 °F 12.2 °F 1020.2 in Calm     65 % 0.0 in 0.0 W/m2 CLR
21:23 18.9 °F 12.2 °F 1020.2 in Calm     65 % 0.0 in 0.0 W/m2 CLR
21:28 18.9 °F 12.6 °F 1020.5 in Calm     67 % 0.0 in 0.0 W/m2 CLR
21:33 18.9 °F 12.2 °F 1020.5 in Calm     65 % 0.0 in 0.0 W/m2 CLR
21:38 18.3 °F 11.4 °F 1020.5 in Calm     64 % 0.0 in 0.0 W/m2 CLR
21:43 18.3 °F 10.9 °F 1020.5 in Calm     62 % 0.0 in 0.0 W/m2 CLR
21:48 17.8 °F 10.4 °F 1020.5 in Calm     62 % 0.0 in 0.0 W/m2 CLR
21:53 17.8 °F 10.4 °F 1020.9 in Calm     62 % 0.0 in 0.0 W/m2 CLR
21:58 17.2 °F 9.9 °F 1020.9 in Calm     62 % 0.0 in 0.0 W/m2 CLR
22:03 17.2 °F 9.9 °F 1020.9 in Calm     62 % 0.0 in 0.0 W/m2 CLR
22:08 17.2 °F 10.1 °F 1020.9 in Calm     63 % 0.0 in 0.0 W/m2 CLR
22:13 17.2 °F 10.1 °F 1020.9 in Calm     63 % 0.0 in 0.0 W/m2 CLR
22:18 16.7 °F 10.1 °F 1020.9 in Calm     65 % 0.0 in 0.0 W/m2 CLR
22:23 16.7 °F 10.3 °F 1020.9 in Calm     66 % 0.0 in 0.0 W/m2 CLR
22:28 16.7 °F 10.5 °F 1020.9 in Calm     67 % 0.0 in 0.0 W/m2 CLR
22:33 16.1 °F 10.0 °F 1021.2 in Calm     67 % 0.0 in 0.0 W/m2 CLR
22:38 16.1 °F 10.2 °F 1021.2 in Calm     68 % 0.0 in 0.0 W/m2 CLR
22:43 16.1 °F 10.0 °F 1021.2 in Calm     67 % 0.0 in 0.0 W/m2 CLR
22:49 16.1 °F 9.8 °F 1021.2 in Calm     66 % 0.0 in 0.0 W/m2 CLR
22:54 16.1 °F 11.1 °F 1021.2 in Calm     72 % 0.0 in 0.0 W/m2 CLR
22:59 15.6 °F 10.7 °F 1021.2 in Calm     73 % 0.0 in 0.0 W/m2 CLR
23:04 15.6 °F 9.9 °F 1021.2 in Calm     69 % 0.0 in 0.0 W/m2 CLR
23:09 15.6 °F 10.1 °F 1021.6 in Calm     70 % 0.0 in 0.0 W/m2 CLR
23:14 15.6 °F 9.9 °F 1021.6 in Calm     69 % 0.0 in 0.0 W/m2 CLR
23:19 15.6 °F 10.3 °F 1021.6 in Calm     71 % 0.0 in 0.0 W/m2 CLR
23:24 15.6 °F 10.5 °F 1021.6 in Calm     72 % 0.0 in 0.0 W/m2 CLR
23:29 15.6 °F 9.4 °F 1021.6 in Calm     67 % 0.0 in 0.0 W/m2 CLR
23:34 15.6 °F 9.2 °F 1021.6 in Calm     66 % 0.0 in 0.0 W/m2 CLR
23:39 15.6 °F 9.0 °F 1021.6 in Calm     65 % 0.0 in 0.0 W/m2 CLR
23:44 15.6 °F 9.2 °F 1021.6 in Calm     66 % 0.0 in 0.0 W/m2 CLR
23:45 15.6 °F 9.0 °F 1021.6 in Calm     65 % 0.0 in 0.0 W/m2 CLR
23:49 15.6 °F 9.0 °F 1021.6 in Calm     65 % 0.0 in 0.0 W/m2 CLR
23:54 15.6 °F 9.0 °F 1021.6 in SSW 4.8 mph 4.8 mph 65 % 0.0 in 0.0 W/m2 CLR
23:59 15.6 °F 8.8 °F 1021.9 in Calm     64 % 0.0 in 0.0 W/m2 CLR
Lo Temps de Massalio
Compliments of Weather Underground - 1.25 mb